• Join FlightAware (Why Join?)
  • Login
  • US Flag 
04:18PM EDT


 

Airport Tracker/Info


-or-


 

Live Flight TrackerFlight Track Log ✈ N479B ✈ 13-Feb-2014 ✈ KTUP - KJAN

Flight Track Log - Related Links

Times and Time Zones

All times are in EST time to prevent confusion due to time zone crossing. See the N479B flight status page for this flight to view local times or setup timezone preferences in your user account.

Time Position Orientation Groundspeed Altitude Reporting Facility
EST Latitude Longitude Course Direction KTS MPH feet Rate Location/Type
09:25AM 34.2317 -88.9244 242° Southwest 207 238 5,600  Level Memphis Center
09:26AM 34.1964 -88.9889 237° Southwest 196 226 7,400 1,680 Climbing Memphis Center
09:27AM 34.1603 -89.0486 234° Southwest 216 249 9,100 1,620 Climbing Memphis Center
09:28AM 34.1286 -89.1108 238° Southwest 218 251 10,800 1,680 Climbing Memphis Center
09:29AM 34.0844 -89.1060 242° Southwest  Level FlightAware Approximate
09:29AM 34.0925 -89.1742 235° Southwest 215 247 12,600  Level Memphis Center
09:30AM 34.0526 -89.1776 242° Southwest  Level FlightAware Approximate
09:30AM 34.0597 -89.2331 236° Southwest 213 245 14,300  Level Memphis Center
09:31AM 34.0272 -89.2911 236° Southwest 211 243 16,000 1,620 Climbing Memphis Center
09:32AM 33.9928 -89.3497 235° Southwest 214 246 17,700 960 Climbing Memphis Center
09:33AM 33.9575 -89.4133 236° Southwest 225 259 18,000 120 Climbing Memphis Center
09:34AM 33.9144 -89.4894 236° Southwest 265 305 18,000  Level Memphis Center
09:35AM 33.8708 -89.5656 235° Southwest 276 318 18,000  Level Memphis Center
09:36AM 33.8183 -89.6589 236° Southwest 280 322 18,000  Level Memphis Center
09:37AM 33.7744 -89.7364 236° Southwest 282 325 18,000  Level Memphis Center
09:38AM 33.7292 -89.8147 235° Southwest 285 328 18,000  Level Memphis Center
09:39AM 33.6842 -89.8925 235° Southwest 286 329 18,000  Level Memphis Center
09:40AM 33.6400 -89.9708 236° Southwest 286 329 18,000  Level Memphis Center
09:41AM 33.5956 -90.0481 235° Southwest 285 328 18,000  Level Memphis Center
09:42AM 33.5506 -90.1267 236° Southwest 286 329 18,000  Level Memphis Center
09:43AM 33.4961 -90.2214 235° Southwest 288 331 18,000 -60 Level Memphis Center
09:44AM 33.4225 -90.2683 208° Southwest 309 356 17,900 -540 Descending Memphis Center
09:45AM 33.3278 -90.2525 172° South 342 394 17,000 -960 Descending Memphis Center
09:46AM 33.2331 -90.2372 172° South 348 400 16,000 -1,080 Descending Memphis Center
09:47AM 33.1389 -90.2208 172° South 346 398 14,900 -1,260 Descending Memphis Center
09:48AM 33.0261 -90.2003 171° South 345 397 13,400 -1,500 Descending Memphis Center
09:49AM 32.9347 -90.1844 172° South 342 394 11,900 -1,500 Descending Memphis Center
09:50AM 32.8444 -90.1647 170° South 338 389 10,400 -1,500 Descending Memphis Center
09:51AM 32.7608 -90.1308 161° South 329 379 8,900 -1,560 Descending Memphis Center
09:52AM 32.6861 -90.1031 163° South 307 353 7,300 -1,440 Descending Memphis Center
09:53AM 32.6028 -90.0706 162° South 281 323 6,000 -660 Descending Memphis Center
09:54AM 32.5389 -90.0453 162° South 262 302 6,000  Level Memphis Center
09:55AM 32.4772 -90.0208 162° South 247 284 6,000 -660 Level Memphis Center
09:56AM 32.4144 -89.9964 162° South 241 277 4,700 -1,320 Descending Memphis Center
09:57AM 32.3536 -89.9733 162° South 236 272 3,300 -1,200 Descending Memphis Center
09:58AM 32.2997 -89.9692 176° South 219 252 2,300 -900 Descending Memphis Center
09:59AM 32.2658 -90.0136 228° Southwest 171 197 1,500 -660 Descending Memphis Center
10:00AM 32.2625 -90.0525 264° West 139 160 1,000 -360 Descending Memphis Center
10:01AM 32.2814 -90.0719 319° Northwest 121 139 800 -240 Descending Memphis Center